Terminal Aerodrome Forecast
Issued by NWS

Home | Current Version | Previous Version | Text Only | Print | Product List | Glossary On
Versions: 1 2 3 4 5 6 7 8 9 10 11 12 13 14 15 16 17 18 19 20 21 22 23 24 25 26 27 28 29 30 31 32 33 34 35 36 37 38 39 40 41 42 43 44 45 46 47 48 49 50
000
FTUS43 KMKX 221725
TAFENW
TAF
KENW 221725Z 2218/2318 36004KT 5SM BR FEW006 OVC016
     FM222000 36004KT P6SM OVC015
     FM222300 36004KT 5SM BR OVC015
     FM230600 VRB03KT 1 1/2SM BR BKN008
     FM231200 33006KT 3SM BR BKN008
     FM231700 34009KT 5SM BR OVC010=

USA.gov is the U.S. government's official web portal to all federal, state and local government web resources and services.